Time;durP1;ratioP1;P1;durP2;ratioP2;P2;SDS_P1;SDS_P2;PMS_P1;PMS_P2;Temp;Humidity;BMP_temperature;BMP_pressure;BME280_temperature;BME280_humidity;BME280_pressure;Samples;Min_cycle;Max_cycle;Signal;HPM_P1;HPM_P2
2021/08/11 00:00:37;;;;;;;19.37;13.27;;;15.70;99.90;;;;;;5054553;28;20404;-77
2021/08/11 00:03:02;;;;;;;24.33;14.07;;;15.70;99.90;;;;;;5072716;28;20388;-77
2021/08/11 00:05:28;;;;;;;19.37;13.80;;;15.70;99.90;;;;;;5072632;28;20403;-77
2021/08/11 00:07:53;;;;;;;19.63;14.13;;;15.90;99.90;;;;;;5054385;28;20394;-77
2021/08/11 00:10:19;;;;;;;20.45;14.18;;;15.80;99.90;;;;;;5071715;28;20394;-76
2021/08/11 00:12:45;;;;;;;20.42;14.68;;;15.80;99.90;;;;;;5053948;28;20387;-75
2021/08/11 00:15:11;;;;;;;24.15;15.48;;;15.90;99.90;;;;;;5071438;28;20387;-75
2021/08/11 00:17:37;;;;;;;20.55;14.10;;;15.80;99.90;;;;;;5071131;28;20384;-76
2021/08/11 00:20:05;;;;;;;21.42;14.60;;;15.80;99.90;;;;;;5072305;28;20383;-78
2021/08/11 00:22:31;;;;;;;21.63;15.23;;;15.60;99.90;;;;;;5071386;28;20808;-75
2021/08/11 00:24:56;;;;;;;21.77;15.40;;;15.60;99.90;;;;;;5071559;28;20455;-76
2021/08/11 00:27:22;;;;;;;29.00;16.50;;;15.50;99.90;;;;;;5071563;28;20942;-76
2021/08/11 00:29:47;;;;;;;25.70;15.73;;;15.40;99.90;;;;;;5071770;28;20408;-75
2021/08/11 00:32:13;;;;;;;25.23;16.43;;;15.40;99.90;;;;;;5054369;28;20383;-77
2021/08/11 00:34:39;;;;;;;27.15;17.55;;;15.40;99.90;;;;;;5072154;28;20748;-77
2021/08/11 00:37:04;;;;;;;29.15;16.90;;;15.40;99.90;;;;;;5072423;28;20387;-76
2021/08/11 00:39:30;;;;;;;26.00;17.33;;;15.40;99.90;;;;;;5071323;28;20395;-77
2021/08/11 00:41:55;;;;;;;25.80;16.67;;;15.30;99.90;;;;;;5053589;28;20403;-77
2021/08/11 00:44:21;;;;;;;33.63;18.90;;;15.30;99.90;;;;;;5053650;28;20387;-77
2021/08/11 00:46:47;;;;;;;27.97;18.43;;;15.20;99.90;;;;;;5071451;28;20376;-76
2021/08/11 00:49:16;;;;;;;25.75;17.65;;;15.20;99.90;;;;;;5071415;28;20391;-76
2021/08/11 00:51:43;;;;;;;30.65;17.50;;;15.20;99.90;;;;;;5055206;28;20447;-77
2021/08/11 00:54:10;;;;;;;30.77;18.38;;;15.30;99.90;;;;;;5076798;28;20386;-76
2021/08/11 00:56:38;;;;;;;28.25;17.42;;;15.30;99.90;;;;;;5060449;28;20394;-76
2021/08/11 00:59:05;;;;;;;25.42;18.00;;;15.30;99.90;;;;;;5074722;28;20383;-75
2021/08/11 01:01:32;;;;;;;25.60;17.60;;;15.20;99.90;;;;;;5077833;28;20407;-76
2021/08/11 01:03:59;;;;;;;28.08;18.38;;;15.30;99.90;;;;;;5076948;28;20491;-76
2021/08/11 01:06:25;;;;;;;28.50;17.45;;;15.40;99.90;;;;;;5057152;28;20392;-74
2021/08/11 01:08:54;;;;;;;29.33;17.20;;;15.20;99.90;;;;;;5076632;28;20524;-75
2021/08/11 01:11:22;;;;;;;25.98;17.10;;;15.20;99.90;;;;;;5076826;28;20387;-75
2021/08/11 01:13:47;;;;;;;26.60;17.83;;;15.10;99.90;;;;;;5073888;28;20375;-76
2021/08/11 01:16:13;;;;;;;26.43;18.13;;;15.20;99.90;;;;;;5053213;28;20868;-76
2021/08/11 01:18:38;;;;;;;29.60;17.77;;;15.20;99.90;;;;;;5071100;28;20857;-76
2021/08/11 01:21:12;;;;;;;28.40;17.03;;;15.20;99.90;;;;;;5053381;28;20450;-76
2021/08/11 01:23:50;;;;;;;26.45;17.60;;;15.20;99.90;;;;;;5071341;28;20372;-76
2021/08/11 01:26:29;;;;;;;29.23;17.92;;;15.30;99.90;;;;;;5052755;28;20398;-76
2021/08/11 01:29:14;;;;;;;27.80;17.30;;;15.30;99.90;;;;;;5052802;28;20470;-77
2021/08/11 01:32:04;;;;;;;24.25;16.27;;;15.20;99.90;;;;;;5070863;28;20390;-76
2021/08/11 01:34:43;;;;;;;28.42;18.65;;;15.20;99.90;;;;;;5074753;28;20458;-76
2021/08/11 01:37:18;;;;;;;33.50;18.97;;;15.20;99.90;;;;;;5074907;28;20451;-75
2021/08/11 01:39:48;;;;;;;28.40;18.67;;;15.20;99.90;;;;;;5074896;28;20395;-76
2021/08/11 01:42:31;;;;;;;29.83;17.33;;;15.20;99.90;;;;;;5074653;28;20410;-76
2021/08/11 01:45:11;;;;;;;32.65;18.90;;;15.20;99.90;;;;;;5074605;28;20375;-76
2021/08/11 01:47:40;;;;;;;31.55;19.13;;;15.20;99.90;;;;;;5074440;28;20397;-75
2021/08/11 01:50:08;;;;;;;31.13;18.60;;;15.20;99.90;;;;;;5074733;28;20386;-75
2021/08/11 01:52:40;;;;;;;26.35;17.40;;;15.50;99.90;;;;;;5074442;28;20411;-75
2021/08/11 01:55:09;;;;;;;28.45;18.08;;;15.50;99.90;;;;;;5074620;28;20914;-75
2021/08/11 01:57:39;;;;;;;32.55;18.35;;;15.40;99.90;;;;;;5074042;28;20398;-75
2021/08/11 02:00:06;;;;;;;27.35;18.63;;;15.40;99.90;;;;;;5074273;28;20375;-76
2021/08/11 02:02:32;;;;;;;28.60;16.90;;;15.20;99.90;;;;;;5074047;28;20390;-76
2021/08/11 02:04:58;;;;;;;28.45;18.10;;;15.10;99.90;;;;;;5074173;28;20402;-77
2021/08/11 02:07:24;;;;;;;37.13;21.17;;;15.10;99.90;;;;;;5081509;22;20544;-72
2021/08/11 02:09:50;;;;;;;38.17;21.02;;;15.10;99.90;;;;;;5053281;28;20431;-71
2021/08/11 02:12:16;;;;;;;33.88;20.00;;;15.10;99.90;;;;;;5053302;28;20378;-71
2021/08/11 02:14:42;;;;;;;35.67;21.15;;;15.20;99.90;;;;;;5053347;28;20456;-70
2021/08/11 02:17:07;;;;;;;42.35;22.40;;;15.30;99.90;;;;;;5053042;28;20874;-70
2021/08/11 02:19:33;;;;;;;39.20;24.00;;;15.40;99.90;;;;;;5052869;28;20783;-71
2021/08/11 02:21:58;;;;;;;57.27;28.20;;;15.40;99.90;;;;;;5053102;28;20916;-71
2021/08/11 02:24:24;;;;;;;51.17;26.43;;;15.50;99.90;;;;;;5052923;28;20464;-71
2021/08/11 02:26:54;;;;;;;67.78;28.88;;;15.60;99.90;;;;;;5052901;28;20405;-71
2021/08/11 02:29:44;;;;;;;78.07;31.70;;;15.60;99.90;;;;;;5053144;28;20392;-71
2021/08/11 02:32:44;;;;;;;77.10;31.67;;;15.70;99.90;;;;;;5052856;28;20734;-70
2021/08/11 02:35:18;;;;;;;84.25;34.50;;;15.70;99.90;;;;;;4997940;28;20409;-71
2021/08/11 02:37:58;;;;;;;90.65;34.78;;;15.80;99.90;;;;;;5052521;28;20890;-71
2021/08/11 02:41:01;;;;;;;113.63;36.53;;;15.90;99.90;;;;;;5052358;28;20482;-71
2021/08/11 02:43:37;;;;;;;91.63;35.95;;;15.90;99.90;;;;;;5034260;28;20389;-71
2021/08/11 02:46:10;;;;;;;94.28;35.17;;;16.00;99.90;;;;;;5052662;28;20382;-70
2021/08/11 02:48:37;;;;;;;92.35;35.70;;;16.00;99.90;;;;;;5052230;28;20381;-71
2021/08/11 02:51:04;;;;;;;107.85;36.50;;;16.00;99.90;;;;;;5052279;28;20447;-70
2021/08/11 02:53:33;;;;;;;137.98;39.47;;;16.00;99.90;;;;;;5052343;28;20463;-71
2021/08/11 02:55:59;;;;;;;139.05;36.55;;;16.00;99.90;;;;;;5052267;28;20389;-72
2021/08/11 02:58:26;;;;;;;121.43;36.60;;;16.10;99.90;;;;;;5051861;28;20476;-72
2021/08/11 03:00:53;;;;;;;117.43;37.00;;;16.10;99.90;;;;;;5052227;28;20413;-72
2021/08/11 03:03:19;;;;;;;98.43;35.92;;;16.00;99.90;;;;;;5052145;28;20414;-72
2021/08/11 03:05:46;;;;;;;109.43;36.28;;;16.00;99.90;;;;;;5052388;28;20804;-71
2021/08/11 03:08:12;;;;;;;174.05;40.33;;;16.00;99.90;;;;;;5051735;28;20416;-71
2021/08/11 03:10:38;;;;;;;109.18;36.47;;;16.00;99.90;;;;;;5052134;28;20857;-71
2021/08/11 03:13:05;;;;;;;92.88;33.10;;;16.00;99.90;;;;;;5052180;28;20385;-71
2021/08/11 03:15:32;;;;;;;108.32;35.03;;;16.00;99.90;;;;;;5051927;28;20757;-70
2021/08/11 03:17:58;;;;;;;93.25;33.22;;;15.90;99.90;;;;;;5051644;28;20413;-72
2021/08/11 03:20:24;;;;;;;91.80;31.23;;;16.00;99.90;;;;;;5051622;28;20405;-70
2021/08/11 03:22:49;;;;;;;94.35;31.00;;;15.90;99.90;;;;;;5051864;28;20397;-71
2021/08/11 03:25:15;;;;;;;121.82;32.10;;;15.90;99.90;;;;;;5051716;28;20388;-70
2021/08/11 03:27:41;;;;;;;164.57;35.25;;;15.80;99.90;;;;;;5051452;28;20380;-70
2021/08/11 03:30:07;;;;;;;114.13;33.17;;;15.80;99.90;;;;;;5051658;28;20373;-71
2021/08/11 03:32:32;;;;;;;76.22;31.30;;;15.90;99.90;;;;;;5051638;28;20831;-71
2021/08/11 03:34:58;;;;;;;114.75;35.22;;;15.90;99.90;;;;;;5051542;28;20488;-71
2021/08/11 03:37:24;;;;;;;113.83;33.60;;;15.90;99.90;;;;;;5051301;28;20417;-72
2021/08/11 03:39:50;;;;;;;91.78;33.58;;;15.80;99.90;;;;;;5051735;28;20384;-73
2021/08/11 03:42:15;;;;;;;136.13;35.05;;;15.90;99.90;;;;;;5051660;28;20405;-72
2021/08/11 03:44:41;;;;;;;79.70;32.47;;;15.80;99.90;;;;;;5052221;28;20381;-70
2021/08/11 03:47:07;;;;;;;175.30;37.60;;;16.00;99.90;;;;;;5051519;28;20715;-72
2021/08/11 03:49:32;;;;;;;132.60;34.00;;;15.90;99.90;;;;;;5051480;28;20381;-72
2021/08/11 03:51:58;;;;;;;170.60;33.40;;;15.90;99.90;;;;;;5051468;28;20857;-72
2021/08/11 03:54:24;;;;;;;131.48;29.00;;;15.80;99.90;;;;;;5051342;28;20392;-71
2021/08/11 03:56:49;;;;;;;121.38;31.15;;;15.80;99.90;;;;;;5050913;28;20385;-72
2021/08/11 03:59:15;;;;;;;110.22;29.55;;;15.80;99.90;;;;;;5050835;28;20397;-72
2021/08/11 04:01:40;;;;;;;103.03;27.77;;;15.80;99.90;;;;;;5051097;28;20730;-70
2021/08/11 04:04:06;;;;;;;85.33;27.03;;;15.80;99.90;;;;;;5033064;28;20638;-70
2021/08/11 04:06:32;;;;;;;61.63;25.30;;;15.70;99.90;;;;;;5050804;28;20380;-71
2021/08/11 04:08:57;;;;;;;71.07;24.50;;;15.90;99.90;;;;;;5050667;28;20389;-70
2021/08/11 04:11:23;;;;;;;92.30;25.85;;;15.90;99.90;;;;;;5051199;28;20940;-72
2021/08/11 04:13:48;;;;;;;57.85;24.23;;;15.90;99.90;;;;;;5051227;28;20480;-71
2021/08/11 04:16:14;;;;;;;44.80;22.20;;;15.80;99.90;;;;;;5051660;28;20413;-71
2021/08/11 04:18:39;;;;;;;53.23;21.93;;;15.80;99.90;;;;;;5050098;28;20393;-72
2021/08/11 04:21:05;;;;;;;87.37;23.70;;;15.80;99.90;;;;;;5050898;28;20463;-72
2021/08/11 04:23:31;;;;;;;65.40;24.65;;;15.90;99.90;;;;;;5050385;28;20462;-71
2021/08/11 04:25:56;;;;;;;75.85;26.13;;;15.80;99.90;;;;;;5050363;28;20381;-71
2021/08/11 04:28:22;;;;;;;58.55;25.73;;;15.90;99.90;;;;;;5032292;28;20389;-71
2021/08/11 04:30:48;;;;;;;68.63;25.97;;;15.90;99.90;;;;;;5050576;28;20442;-72
2021/08/11 04:33:13;;;;;;;64.80;26.40;;;16.00;99.90;;;;;;5050554;28;20523;-73
2021/08/11 04:35:40;;;;;;;76.97;26.05;;;16.00;99.90;;;;;;5050467;28;20577;-71
2021/08/11 04:38:06;;;;;;;73.50;26.27;;;16.00;99.90;;;;;;5050577;28;20484;-71
2021/08/11 04:40:35;;;;;;;64.55;25.73;;;16.10;99.90;;;;;;5050318;28;20409;-74
2021/08/11 04:43:01;;;;;;;69.35;25.85;;;16.10;99.90;;;;;;5050427;28;20866;-72
2021/08/11 04:45:27;;;;;;;67.10;27.00;;;16.10;99.90;;;;;;5050501;28;20396;-72
2021/08/11 04:47:52;;;;;;;297.60;212.98;;;16.10;99.90;;;;;;5049682;28;20870;-72
2021/08/11 04:50:18;;;;;;;92.90;45.35;;;16.30;99.90;;;;;;5050355;28;20397;-72
2021/08/11 04:52:44;;;;;;;76.15;30.65;;;16.40;99.90;;;;;;5050424;28;20573;-72
2021/08/11 04:55:12;;;;;;;71.88;30.73;;;16.40;99.90;;;;;;5050495;28;20439;-71
2021/08/11 04:57:38;;;;;;;76.97;32.97;;;16.40;99.90;;;;;;5049966;28;20428;-71
2021/08/11 05:00:04;;;;;;;78.83;28.07;;;16.50;99.90;;;;;;5050088;28;20505;-71
2021/08/11 05:02:29;;;;;;;95.15;28.55;;;16.50;99.90;;;;;;5049864;28;20424;-72
2021/08/11 05:04:55;;;;;;;78.00;30.43;;;16.50;99.90;;;;;;5050111;28;20396;-71
2021/08/11 05:07:20;;;;;;;77.57;29.15;;;16.50;99.90;;;;;;5031348;28;20822;-72
2021/08/11 05:09:46;;;;;;;69.40;29.83;;;16.60;99.90;;;;;;5050021;28;20822;-70
2021/08/11 05:12:11;;;;;;;76.97;29.93;;;16.70;99.90;;;;;;5049961;28;20397;-71
2021/08/11 05:14:37;;;;;;;70.80;31.40;;;16.70;99.90;;;;;;5049776;28;20385;-71
2021/08/11 05:17:03;;;;;;;64.97;31.30;;;16.80;99.90;;;;;;5049893;28;21010;-72
2021/08/11 05:19:28;;;;;;;64.70;31.30;;;17.00;99.90;;;;;;5049523;28;20388;-71
2021/08/11 05:21:54;;;;;;;80.50;32.60;;;17.10;99.90;;;;;;5049815;28;20455;-71
2021/08/11 05:24:19;;;;;;;74.13;34.07;;;17.20;99.90;;;;;;5049601;28;20861;-71
2021/08/11 05:26:45;;;;;;;84.33;43.00;;;17.20;99.90;;;;;;5049525;28;20464;-72
2021/08/11 05:29:18;;;;;;;78.45;37.13;;;17.20;99.60;;;;;;5049801;28;20811;-72
2021/08/11 05:31:44;;;;;;;76.78;35.33;;;17.30;97.70;;;;;;5049351;28;20386;-72
2021/08/11 05:34:10;;;;;;;75.15;34.50;;;17.40;97.50;;;;;;5050042;28;20408;-72
2021/08/11 05:36:36;;;;;;;72.80;34.10;;;17.50;95.20;;;;;;5049712;28;20869;-70
2021/08/11 05:39:02;;;;;;;81.10;35.60;;;17.50;94.20;;;;;;5049232;28;20385;-71
2021/08/11 05:41:27;;;;;;;79.80;35.03;;;17.60;93.20;;;;;;5031455;28;20554;-72
2021/08/11 05:43:53;;;;;;;75.43;34.53;;;17.70;92.20;;;;;;5049460;28;20472;-71
2021/08/11 05:46:18;;;;;;;76.47;34.77;;;17.60;91.70;;;;;;5049378;28;20378;-71
2021/08/11 05:48:44;;;;;;;77.90;35.73;;;17.70;90.50;;;;;;5049343;28;20389;-72
2021/08/11 05:51:10;;;;;;;80.60;35.40;;;17.60;87.70;;;;;;5049767;28;20443;-72
2021/08/11 05:53:35;;;;;;;75.80;35.65;;;17.70;87.40;;;;;;5049324;28;20385;-71
2021/08/11 05:56:01;;;;;;;78.37;35.60;;;17.70;87.20;;;;;;5049537;28;20382;-71
2021/08/11 05:58:27;;;;;;;96.07;51.73;;;17.70;86.10;;;;;;5049203;28;20390;-72
2021/08/11 06:00:52;;;;;;;85.32;39.38;;;17.80;84.40;;;;;;5049627;28;20413;-72
2021/08/11 06:03:18;;;;;;;75.72;38.95;;;17.90;82.90;;;;;;5049458;28;20469;-71
2021/08/11 06:05:43;;;;;;;83.53;39.92;;;17.90;81.50;;;;;;5049418;28;20419;-72
2021/08/11 06:08:10;;;;;;;89.57;40.50;;;17.80;80.80;;;;;;5048987;28;20402;-72
2021/08/11 06:10:35;;;;;;;88.13;43.25;;;17.80;81.60;;;;;;5049646;28;20476;-71
2021/08/11 06:13:02;;;;;;;82.13;41.58;;;17.90;82.20;;;;;;5049870;28;20469;-71
2021/08/11 06:15:27;;;;;;;93.60;42.30;;;18.10;79.80;;;;;;5049166;28;20473;-71
2021/08/11 06:17:53;;;;;;;87.05;41.22;;;18.20;77.20;;;;;;5049021;28;20773;-72
2021/08/11 06:20:20;;;;;;;87.85;41.65;;;18.20;76.80;;;;;;5052428;28;20385;-72
2021/08/11 06:22:46;;;;;;;76.50;38.50;;;18.20;77.00;;;;;;5052733;28;20858;-71
2021/08/11 06:25:13;;;;;;;78.22;39.55;;;18.30;75.70;;;;;;5052383;28;20404;-71
2021/08/11 06:27:39;;;;;;;77.15;40.13;;;18.40;73.80;;;;;;5052061;28;20376;-71
2021/08/11 06:30:06;;;;;;;78.50;41.00;;;18.40;72.30;;;;;;5052505;28;20378;-71
2021/08/11 06:32:31;;;;;;;88.65;46.63;;;18.30;73.60;;;;;;5052354;28;20408;-70
2021/08/11 06:34:57;;;;;;;80.67;41.00;;;18.30;74.20;;;;;;5052620;28;20389;-71
2021/08/11 06:37:23;;;;;;;83.97;43.23;;;18.30;74.50;;;;;;5034302;28;20794;-72
2021/08/11 06:39:49;;;;;;;79.28;41.35;;;18.30;74.10;;;;;;5052370;28;20421;-71
2021/08/11 06:42:14;;;;;;;85.00;45.25;;;18.30;74.60;;;;;;5052243;28;20401;-71
2021/08/11 06:44:40;;;;;;;74.03;38.65;;;18.30;74.00;;;;;;5052420;28;20931;-71
2021/08/11 06:47:05;;;;;;;68.63;38.07;;;18.40;72.10;;;;;;5052126;28;20885;-71
2021/08/11 06:49:31;;;;;;;74.17;40.10;;;18.40;73.00;;;;;;5051797;28;20492;-71
2021/08/11 06:51:56;;;;;;;80.85;41.40;;;18.60;70.40;;;;;;5052420;28;20408;-71
2021/08/11 06:54:22;;;;;;;68.23;37.53;;;18.60;70.60;;;;;;5034182;28;20401;-71
2021/08/11 06:56:47;;;;;;;74.10;41.00;;;18.80;70.80;;;;;;5051906;28;20390;-71
2021/08/11 06:59:13;;;;;;;65.43;38.45;;;18.90;68.10;;;;;;5051641;28;20401;-71
2021/08/11 07:01:39;;;;;;;68.03;38.87;;;19.00;65.50;;;;;;5051909;28;20408;-71
2021/08/11 07:04:05;;;;;;;61.22;35.40;;;19.20;61.30;;;;;;5051962;28;20384;-71
2021/08/11 07:06:32;;;;;;;63.07;36.27;;;19.30;59.90;;;;;;5051209;28;20370;-71
2021/08/11 07:08:57;;;;;;;67.75;37.25;;;19.40;57.50;;;;;;5051471;28;20393;-71
2021/08/11 07:11:23;;;;;;;64.97;36.90;;;19.40;56.60;;;;;;5051951;28;20401;-71
2021/08/11 07:13:49;;;;;;;65.73;37.17;;;19.30;57.70;;;;;;5052174;28;20478;-71
2021/08/11 07:16:20;;;;;;;60.42;36.28;;;19.30;58.30;;;;;;5055190;28;20417;-74
2021/08/11 07:18:45;;;;;;;61.67;35.38;;;19.40;57.20;;;;;;5051707;28;20392;-72
2021/08/11 07:21:11;;;;;;;57.63;34.70;;;19.50;56.50;;;;;;5051683;28;20534;-72
2021/08/11 07:23:36;;;;;;;60.67;36.15;;;19.40;56.70;;;;;;5051519;28;20469;-71
2021/08/11 07:26:03;;;;;;;66.10;39.00;;;19.40;56.60;;;;;;5051579;28;20431;-71
2021/08/11 07:28:28;;;;;;;66.60;38.95;;;19.40;56.40;;;;;;5051288;28;20381;-71
2021/08/11 07:30:54;;;;;;;66.80;40.45;;;19.50;56.30;;;;;;5050393;28;20770;-71
2021/08/11 07:33:22;;;;;;;68.80;41.80;;;19.70;55.20;;;;;;5051374;28;20785;-71
2021/08/11 07:35:48;;;;;;;64.95;39.78;;;19.70;54.30;;;;;;5033836;28;20473;-71
2021/08/11 07:38:14;;;;;;;61.85;39.00;;;19.70;54.70;;;;;;5050838;28;20817;-71
2021/08/11 07:40:41;;;;;;;62.70;39.23;;;19.70;54.40;;;;;;5050958;28;20531;-71
2021/08/11 07:43:07;;;;;;;66.53;39.42;;;19.70;54.40;;;;;;5051111;28;20382;-71
2021/08/11 07:45:33;;;;;;;64.43;39.30;;;19.80;52.70;;;;;;5051293;28;20460;-72
2021/08/11 07:47:59;;;;;;;64.75;39.03;;;20.00;52.40;;;;;;5050900;28;20388;-72
2021/08/11 07:50:27;;;;;;;60.88;38.83;;;20.20;50.60;;;;;;5033105;28;20385;-73
2021/08/11 07:52:54;;;;;;;65.55;39.83;;;20.20;49.60;;;;;;5051195;28;20374;-72
2021/08/11 07:55:20;;;;;;;60.30;38.53;;;20.20;49.90;;;;;;5051127;28;20374;-72
2021/08/11 07:57:46;;;;;;;64.35;41.03;;;20.30;50.20;;;;;;5050608;28;20404;-72
2021/08/11 08:00:13;;;;;;;72.10;42.33;;;20.50;48.10;;;;;;5050796;28;20873;-72
2021/08/11 08:02:39;;;;;;;69.23;41.00;;;20.60;46.00;;;;;;5050933;28;20389;-72
2021/08/11 08:05:05;;;;;;;75.50;40.50;;;20.60;45.60;;;;;;5050976;28;20888;-72
2021/08/11 08:07:31;;;;;;;64.40;40.03;;;20.90;44.30;;;;;;5064576;22;20439;-76
2021/08/11 08:09:57;;;;;;;65.70;39.95;;;21.00;43.10;;;;;;5051660;28;20389;-76
2021/08/11 08:12:23;;;;;;;63.50;39.72;;;21.10;43.00;;;;;;5034508;28;20858;-76
2021/08/11 08:14:49;;;;;;;65.70;38.83;;;21.30;42.80;;;;;;5034154;28;20464;-76
2021/08/11 08:17:14;;;;;;;61.05;39.45;;;21.40;41.90;;;;;;5052290;28;20424;-76
2021/08/11 08:19:40;;;;;;;63.73;39.23;;;21.50;41.20;;;;;;5052439;28;20377;-76
2021/08/11 08:22:06;;;;;;;59.10;39.53;;;21.70;41.30;;;;;;5052567;28;20968;-75
2021/08/11 08:24:32;;;;;;;63.97;39.80;;;22.00;39.70;;;;;;5052238;28;20443;-76
2021/08/11 08:27:02;;;;;;;55.58;37.97;;;22.20;38.20;;;;;;5052974;28;20389;-74
2021/08/11 08:29:28;;;;;;;58.13;37.47;;;22.30;37.80;;;;;;5052596;28;20386;-75
2021/08/11 08:31:54;;;;;;;56.80;35.43;;;22.20;37.10;;;;;;5055503;28;20416;-76
2021/08/11 08:34:19;;;;;;;56.70;35.10;;;22.40;36.80;;;;;;5052646;28;20747;-76
2021/08/11 08:36:45;;;;;;;50.60;35.00;;;22.30;36.70;;;;;;5052725;28;20392;-76
2021/08/11 08:39:11;;;;;;;52.33;34.80;;;22.20;37.10;;;;;;5051835;28;20461;-77
2021/08/11 08:41:38;;;;;;;59.70;35.53;;;22.30;37.80;;;;;;5051011;28;20401;-76
2021/08/11 08:44:04;;;;;;;55.50;35.53;;;22.40;36.80;;;;;;5053023;28;20393;-77
2021/08/11 08:46:30;;;;;;;45.55;31.42;;;22.50;36.60;;;;;;5034819;28;20857;-76
2021/08/11 08:49:01;;;;;;;49.20;32.97;;;22.30;36.40;;;;;;5052956;28;20416;-77
2021/08/11 08:51:28;;;;;;;53.40;34.30;;;22.00;36.80;;;;;;5052789;28;20456;-76
2021/08/11 08:53:54;;;;;;;53.35;35.55;;;21.80;37.70;;;;;;5051180;28;20816;-76
2021/08/11 08:56:20;;;;;;;51.72;34.75;;;21.60;38.40;;;;;;5051086;28;20478;-76
2021/08/11 08:58:46;;;;;;;55.57;36.50;;;21.80;38.40;;;;;;5050723;28;20873;-77
2021/08/11 09:01:11;;;;;;;53.67;36.63;;;21.70;38.60;;;;;;5050851;28;20409;-76
2021/08/11 09:03:37;;;;;;;59.60;37.67;;;21.70;38.70;;;;;;5050997;28;20386;-76
2021/08/11 09:06:03;;;;;;;60.57;35.63;;;21.60;39.40;;;;;;5050642;28;20440;-76
2021/08/11 09:08:28;;;;;;;59.75;36.70;;;21.70;40.10;;;;;;5051688;28;20404;-76
2021/08/11 09:10:55;;;;;;;60.42;37.33;;;21.90;38.80;;;;;;5051688;28;20400;-76
2021/08/11 09:13:22;;;;;;;63.38;37.85;;;21.80;38.60;;;;;;5052043;28;20404;-76
2021/08/11 09:16:04;;;;;;;58.10;37.13;;;21.70;39.50;;;;;;5034329;28;20385;-76
2021/08/11 09:18:30;;;;;;;57.70;35.50;;;22.00;38.90;;;;;;5033720;28;20927;-76
2021/08/11 09:20:59;;;;;;;51.30;32.72;;;22.00;38.00;;;;;;5051726;28;20412;-77
2021/08/11 09:23:45;;;;;;;49.53;32.15;;;22.20;37.50;;;;;;5052062;28;20381;-76
2021/08/11 09:26:13;;;;;;;48.63;30.42;;;22.40;36.20;;;;;;5052530;28;20380;-76
2021/08/11 09:28:41;;;;;;;48.27;31.13;;;22.60;35.60;;;;;;5051638;28;20397;-76
2021/08/11 09:31:30;;;;;;;50.40;29.90;;;23.00;33.30;;;;;;5052774;28;20716;-75
2021/08/11 09:33:59;;;;;;;42.15;26.83;;;23.10;32.70;;;;;;5053359;28;20443;-77
2021/08/11 09:36:25;;;;;;;47.67;30.95;;;23.20;31.50;;;;;;5053196;28;20435;-76
2021/08/11 09:39:09;;;;;;;45.92;29.88;;;23.40;31.60;;;;;;5036124;28;20385;-76
2021/08/11 09:41:35;;;;;;;45.58;28.10;;;23.70;31.00;;;;;;5034559;28;20812;-76
2021/08/11 09:44:07;;;;;;;45.38;27.80;;;23.90;30.00;;;;;;5052412;28;20382;-75
2021/08/11 09:46:33;;;;;;;39.08;26.70;;;24.10;30.10;;;;;;5052253;28;20488;-76
2021/08/11 09:48:59;;;;;;;43.75;26.83;;;24.10;29.20;;;;;;5051268;28;20381;-76
2021/08/11 09:51:25;;;;;;;38.72;25.13;;;24.20;29.10;;;;;;5051563;28;20455;-74
2021/08/11 09:53:50;;;;;;;33.53;22.93;;;24.60;27.80;;;;;;5054843;28;20874;-75
2021/08/11 09:56:16;;;;;;;31.00;22.10;;;24.50;26.90;;;;;;5054190;28;20443;-75
2021/08/11 09:58:43;;;;;;;29.45;19.95;;;24.20;26.80;;;;;;5035965;28;20908;-75
2021/08/11 10:01:12;;;;;;;26.50;19.08;;;24.00;27.90;;;;;;5054162;28;20397;-76
2021/08/11 10:03:59;;;;;;;26.92;17.95;;;23.70;28.30;;;;;;5054166;28;20958;-75
2021/08/11 10:06:36;;;;;;;29.67;20.85;;;23.40;28.60;;;;;;5036028;28;20476;-75
2021/08/11 10:09:23;;;;;;;27.98;18.63;;;23.20;29.70;;;;;;5053502;28;20421;-75
2021/08/11 10:11:50;;;;;;;30.23;18.00;;;23.20;30.40;;;;;;5054109;28;20397;-75
2021/08/11 10:14:18;;;;;;;24.58;17.00;;;23.30;30.20;;;;;;5054007;28;20386;-75
2021/08/11 10:16:45;;;;;;;24.05;16.77;;;23.30;29.50;;;;;;5053879;28;20393;-75
2021/08/11 10:19:12;;;;;;;21.60;15.75;;;23.60;29.00;;;;;;5053384;28;20389;-76
2021/08/11 10:21:49;;;;;;;23.17;14.37;;;23.80;27.90;;;;;;5053776;28;20462;-75
2021/08/11 10:24:15;;;;;;;21.08;14.30;;;24.10;27.70;;;;;;5053718;28;20393;-74
2021/08/11 10:26:42;;;;;;;21.93;14.33;;;24.20;27.20;;;;;;5053723;28;20381;-75
2021/08/11 10:29:08;;;;;;;17.45;13.18;;;24.30;26.20;;;;;;5053385;28;20382;-74
2021/08/11 10:31:35;;;;;;;21.30;14.07;;;24.70;25.50;;;;;;5035805;28;20951;-76
2021/08/11 10:34:02;;;;;;;14.35;10.88;;;24.80;25.60;;;;;;5053711;28;20745;-75
2021/08/11 10:36:31;;;;;;;14.00;9.38;;;24.90;24.30;;;;;;5053989;28;20435;-76
2021/08/11 10:38:59;;;;;;;11.40;9.63;;;25.10;23.10;;;;;;5053848;28;20461;-75
2021/08/11 10:41:29;;;;;;;16.73;11.88;;;25.50;22.60;;;;;;5054183;28;20501;-75
2021/08/11 10:43:55;;;;;;;16.13;10.88;;;25.70;22.00;;;;;;5053506;28;20385;-76
2021/08/11 10:46:21;;;;;;;15.07;10.40;;;26.00;21.20;;;;;;5053500;28;20392;-76
2021/08/11 10:49:04;;;;;;;18.43;11.00;;;26.20;21.60;;;;;;5053796;28;20413;-75
2021/08/11 10:51:38;;;;;;;14.10;10.52;;;26.40;20.60;;;;;;5053494;28;20394;-75
2021/08/11 10:54:04;;;;;;;18.42;11.30;;;26.60;20.50;;;;;;5036166;28;20836;-75
2021/08/11 10:56:52;;;;;;;12.50;9.80;;;26.40;19.50;;;;;;5053471;28;20397;-75
2021/08/11 10:59:27;;;;;;;12.65;9.40;;;26.50;19.80;;;;;;5052719;28;20405;-76
2021/08/11 11:01:56;;;;;;;10.38;8.63;;;26.40;19.90;;;;;;5035860;28;20405;-76
2021/08/11 11:04:42;;;;;;;10.13;8.25;;;26.20;19.50;;;;;;5052536;28;20381;-74
2021/08/11 11:09:42;;;;;;;10.98;6.40;;;26.40;19.10;;;;;;5052823;28;20489;-75
2021/08/11 11:12:17;;;;;;;8.88;7.85;;;26.40;18.40;;;;;;5034670;28;20777;-75
2021/08/11 11:14:44;;;;;;;12.05;8.25;;;26.50;18.90;;;;;;5052436;28;20439;-75
2021/08/11 11:17:10;;;;;;;8.00;7.20;;;26.90;18.00;;;;;;5052430;28;20929;-75
2021/08/11 11:22:42;;;;;;;7.78;6.25;;;26.50;18.70;;;;;;5052134;28;20408;-75
2021/08/11 11:25:10;;;;;;;10.18;7.60;;;26.50;18.70;;;;;;5051795;28;20778;-75
2021/08/11 11:27:38;;;;;;;11.13;7.40;;;26.30;19.70;;;;;;5052139;28;20390;-75
2021/08/11 11:30:06;;;;;;;8.95;7.18;;;26.00;20.30;;;;;;5034897;28;20409;-75
2021/08/11 11:32:32;;;;;;;8.57;6.45;;;25.90;19.30;;;;;;5051997;28;20381;-75
2021/08/11 11:35:17;;;;;;;8.45;6.10;;;25.70;19.10;;;;;;5052042;28;20385;-75
2021/08/11 11:37:43;;;;;;;16.15;7.10;;;25.50;18.80;;;;;;5051732;28;20390;-75
2021/08/11 11:40:15;;;;;;;9.00;6.60;;;25.30;20.20;;;;;;5052070;28;20484;-74
2021/08/11 11:42:41;;;;;;;7.10;5.10;;;25.50;20.10;;;;;;5052010;28;20909;-75
2021/08/11 11:45:13;;;;;;;8.50;5.10;;;25.60;18.90;;;;;;5051399;28;20428;-75
2021/08/11 11:47:42;;;;;;;8.27;5.80;;;25.70;18.90;;;;;;5051962;28;20384;-75
2021/08/11 11:50:20;;;;;;;8.65;5.80;;;25.80;18.90;;;;;;5051647;28;20418;-75
2021/08/11 11:53:02;;;;;;;5.90;5.32;;;26.10;19.20;;;;;;5052719;28;20377;-74
2021/08/11 11:55:29;;;;;;;7.50;5.55;;;26.50;19.10;;;;;;5051644;28;20427;-74
2021/08/11 11:57:56;;;;;;;7.32;4.97;;;26.60;16.90;;;;;;5051705;28;20465;-75
2021/08/11 12:00:23;;;;;;;7.25;5.22;;;26.50;17.20;;;;;;5051439;28;20388;-75
2021/08/11 12:02:52;;;;;;;6.50;4.85;;;26.50;16.90;;;;;;5051747;28;20472;-76
2021/08/11 12:05:18;;;;;;;5.85;5.15;;;26.80;17.80;;;;;;5051861;28;20452;-75
2021/08/11 12:07:44;;;;;;;6.22;5.15;;;26.80;17.50;;;;;;5050960;28;20393;-74
2021/08/11 12:10:25;;;;;;;5.60;5.10;;;27.00;17.90;;;;;;5051610;28;20466;-75
2021/08/11 12:13:02;;;;;;;6.97;5.05;;;27.10;17.70;;;;;;5051631;28;20476;-75
2021/08/11 12:15:36;;;;;;;8.70;4.80;;;27.00;16.90;;;;;;5051867;28;20772;-76
2021/08/11 12:18:22;;;;;;;5.90;4.80;;;26.60;17.60;;;;;;5032575;28;20393;-76
2021/08/11 12:20:49;;;;;;;5.75;4.78;;;26.50;18.10;;;;;;5051671;28;20805;-76
2021/08/11 12:23:24;;;;;;;7.10;4.85;;;26.20;18.70;;;;;;5051316;28;20484;-76
2021/08/11 12:26:01;;;;;;;10.23;5.63;;;26.10;18.70;;;;;;5033774;28;20385;-75
2021/08/11 12:28:40;;;;;;;8.50;5.00;;;26.20;19.20;;;;;;5051679;28;20380;-75
2021/08/11 12:31:11;;;;;;;8.27;5.55;;;26.30;19.20;;;;;;5052280;28;20381;-76
2021/08/11 12:33:38;;;;;;;6.80;5.07;;;26.20;19.50;;;;;;5053424;28;20385;-76
2021/08/11 12:36:11;;;;;;;5.32;4.82;;;26.10;18.90;;;;;;5052482;28;20428;-74
2021/08/11 12:38:39;;;;;;;8.20;4.63;;;26.10;19.30;;;;;;5053573;28;20390;-75